Time;durP1;ratioP1;P1;durP2;ratioP2;P2;SDS_P1;SDS_P2;PMS_P1;PMS_P2;Temp;Humidity;BMP_temperature;BMP_pressure;BME280_temperature;BME280_humidity;BME280_pressure;Samples;Min_cycle;Max_cycle;Signal;HPM_P1;HPM_P2
2023/02/21 02:14:27;;;;;;;6.00;2.67;;;8.00;65.80;;;10.93;44.25;98014.69;5017959;28;20049;-42
2023/02/21 02:17:46;;;;;;;4.60;2.30;;;7.90;66.20;;;10.82;44.13;98014.97;5003279;28;20042;-43
2023/02/21 02:20:51;;;;;;;3.23;1.90;;;7.70;66.90;;;10.70;44.34;98003.72;5027989;28;20052;-42
2023/02/21 02:23:38;;;;;;;;;;;7.60;67.20;;;10.71;43.95;98010.69;5027981;28;20057;-43
2023/02/21 02:27:17;;;;;;;6.43;2.67;;;7.50;68.50;;;10.56;44.61;98014.88;5026223;28;20285;-42
2023/02/21 02:30:27;;;;;;;5.17;3.20;;;7.40;67.90;;;10.45;44.43;98013.28;5009153;28;20054;-41
2023/02/21 02:33:36;;;;;;;3.20;2.33;;;7.20;68.30;;;10.38;44.38;98010.38;4971738;28;20461;-41
2023/02/21 02:36:19;;;;;;;3.33;2.47;;;7.20;69.80;;;10.33;44.74;98017.16;5024675;28;20524;-43
2023/02/21 02:39:02;;;;;;;5.72;3.58;;;7.10;68.80;;;10.26;44.88;98019.56;5016519;28;20484;-41
2023/02/21 02:41:51;;;;;;;3.70;2.37;;;7.00;69.30;;;10.17;45.26;98013.28;5031755;28;20393;-42
2023/02/21 02:44:33;;;;;;;4.10;2.60;;;6.90;69.70;;;10.13;45.49;98016.41;5019892;28;20056;-41
2023/02/21 02:47:03;;;;;;;2.83;2.03;;;6.90;69.50;;;10.09;45.13;98009.72;5024424;28;20416;-43
2023/02/21 02:49:35;;;;;;;4.50;2.13;;;6.90;69.40;;;10.08;45.03;98006.22;5031751;28;20425;-41
2023/02/21 02:52:08;;;;;;;3.77;2.00;;;6.90;69.20;;;10.07;45.17;98001.88;5023670;28;20048;-42
2023/02/21 02:54:36;;;;;;;6.10;2.65;;;6.90;69.00;;;10.03;44.91;98004.00;5031338;28;20049;-41
2023/02/21 02:57:09;;;;;;;4.43;2.17;;;6.80;68.80;;;10.02;44.91;97996.16;5031512;28;20171;-45
2023/02/21 02:59:44;;;;;;;4.25;2.25;;;6.90;68.80;;;10.00;44.72;98006.09;5031827;28;20446;-42
2023/02/21 03:02:31;;;;;;;3.60;2.47;;;6.80;68.40;;;9.97;45.16;98006.44;5015970;28;20045;-41
2023/02/21 03:05:00;;;;;;;4.53;2.10;;;6.90;68.40;;;9.95;45.13;98006.56;5007235;28;20045;-41
2023/02/21 03:07:58;;;;;;;5.40;2.40;;;6.80;68.30;;;9.92;45.24;98008.69;5031149;28;20056;-42
2023/02/21 03:10:47;;;;;;;3.30;2.20;;;6.80;68.80;;;9.88;45.18;98007.31;5031090;28;20060;-43
2023/02/21 03:13:25;;;;;;;2.53;1.90;;;6.80;69.00;;;9.85;45.36;98011.09;5025971;28;20056;-41
2023/02/21 03:16:23;;;;;;;3.27;2.07;;;6.70;68.60;;;9.74;45.14;98011.28;5015704;28;20046;-41
2023/02/21 03:19:25;;;;;;;4.80;1.80;;;6.60;69.30;;;9.63;45.18;98005.19;5030560;28;20416;-42
2023/02/21 03:22:01;;;;;;;3.33;1.70;;;6.50;69.40;;;9.63;45.62;98009.66;5030410;28;20417;-41
2023/02/21 03:24:30;;;;;;;3.27;1.87;;;6.40;69.30;;;9.63;45.33;98014.97;5014169;28;20080;-42
2023/02/21 03:27:04;;;;;;;4.83;2.00;;;6.50;69.10;;;9.67;45.21;98005.72;5014327;28;20072;-42
2023/02/21 03:29:52;;;;;;;4.17;2.30;;;6.50;68.60;;;9.65;45.32;98005.03;5031255;28;20060;-41
2023/02/21 03:32:36;;;;;;;3.33;2.03;;;6.50;68.60;;;9.66;45.06;98004.88;5014960;28;20045;-41
2023/02/21 03:35:06;;;;;;;3.95;1.85;;;6.60;68.80;;;9.64;45.20;98001.53;5008450;28;20049;-42
2023/02/21 03:37:53;;;;;;;2.40;1.70;;;6.50;68.50;;;9.61;45.34;97993.84;5030721;28;20049;-42
2023/02/21 03:40:29;;;;;;;2.63;2.00;;;6.50;69.30;;;9.59;45.64;97995.81;5025746;28;20128;-40
2023/02/21 03:43:02;;;;;;;2.43;1.90;;;6.50;68.70;;;9.60;45.35;98008.13;5030194;28;20049;-41
2023/02/21 03:45:35;;;;;;;2.97;1.73;;;6.50;68.60;;;9.58;45.05;98012.75;5029905;28;20049;-41
2023/02/21 03:48:14;;;;;;;3.50;2.27;;;6.40;68.40;;;9.55;45.21;98006.91;5009488;28;20049;-41
2023/02/21 03:51:00;;;;;;;9.13;4.30;;;6.40;68.80;;;9.53;45.73;98007.03;5029460;28;20049;-41
2023/02/21 03:53:33;;;;;;;;;;;6.30;68.70;;;9.52;45.26;98005.38;5030527;28;20045;-43
2023/02/21 03:56:02;;;;;;;13.40;5.30;;;6.30;69.10;;;9.53;45.16;98008.84;5022459;28;19940;-41
2023/02/21 03:58:42;;;;;;;8.70;4.03;;;6.30;68.80;;;9.49;45.33;98013.63;5030729;28;20057;-41
2023/02/21 04:01:10;;;;;;;8.10;4.50;;;6.30;68.70;;;9.46;45.55;98005.97;5030933;28;20054;-43
2023/02/21 04:03:38;;;;;;;8.07;4.07;;;6.30;68.80;;;9.45;45.50;98007.75;5029119;28;20057;-43
2023/02/21 04:06:05;;;;;;;7.17;3.63;;;6.30;68.80;;;9.43;45.46;98007.06;5029894;28;20037;-41
2023/02/21 04:08:33;;;;;;;3.03;2.00;;;6.30;68.70;;;9.43;45.42;98004.41;5029964;28;20064;-41
2023/02/21 04:11:01;;;;;;;4.33;2.50;;;6.40;68.60;;;9.48;45.47;97997.81;5029795;28;20082;-42
2023/02/21 04:13:32;;;;;;;2.97;1.93;;;6.40;68.60;;;9.46;45.46;98001.47;5029403;28;20061;-41
2023/02/21 04:16:03;;;;;;;3.43;2.17;;;6.30;68.50;;;9.47;45.39;97994.34;5029871;28;20048;-41
2023/02/21 04:18:32;;;;;;;2.87;2.20;;;6.40;68.70;;;9.46;45.55;98001.47;5029978;28;20527;-41
2023/02/21 04:21:03;;;;;;;3.27;1.80;;;6.40;68.80;;;9.42;45.54;98002.75;5029895;28;20527;-41
2023/02/21 04:23:31;;;;;;;2.63;2.00;;;6.30;68.60;;;9.39;45.70;97996.88;5029090;28;20041;-42
2023/02/21 04:25:59;;;;;;;3.10;1.90;;;6.20;68.90;;;9.38;45.57;98003.16;5026898;28;20048;-44
2023/02/21 04:28:36;;;;;;;3.23;2.00;;;6.20;68.60;;;9.37;45.65;98004.16;5029982;28;20401;-42
2023/02/21 04:31:03;;;;;;;4.23;2.13;;;6.20;68.90;;;9.33;45.78;97997.47;5031017;28;20041;-41
2023/02/21 04:33:31;;;;;;;2.87;1.60;;;6.10;68.80;;;9.29;45.71;97999.56;5029926;28;20046;-41
2023/02/21 04:35:59;;;;;;;6.93;2.70;;;6.10;69.00;;;9.22;45.71;98003.78;5029882;28;20246;-41
2023/02/21 04:38:41;;;;;;;2.90;2.13;;;6.10;69.30;;;9.20;45.71;98003.91;5015563;28;20428;-41
2023/02/21 04:41:08;;;;;;;3.63;1.83;;;6.00;69.20;;;9.17;45.56;98006.00;5030955;28;20042;-43
2023/02/21 04:43:36;;;;;;;6.27;2.07;;;6.00;69.40;;;9.09;45.76;97998.75;5029472;28;20509;-41
2023/02/21 04:46:04;;;;;;;16.37;3.37;;;5.90;69.80;;;9.04;46.08;98004.50;5031015;28;20037;-41
2023/02/21 04:48:32;;;;;;;3.50;2.10;;;5.90;70.20;;;9.03;46.16;98002.00;5029516;28;20058;-41
2023/02/21 04:50:59;;;;;;;4.40;1.97;;;5.90;70.20;;;9.02;45.90;97997.69;5030815;28;20520;-40
2023/02/21 04:53:41;;;;;;;4.03;2.17;;;5.90;70.40;;;9.03;46.18;98002.84;5030460;28;20041;-41
2023/02/21 04:56:09;;;;;;;4.40;2.20;;;5.90;70.20;;;9.04;45.81;98001.84;5030159;28;20516;-42
2023/02/21 04:58:38;;;;;;;5.73;2.10;;;5.90;69.80;;;9.01;45.96;98004.78;5030870;28;20421;-41
2023/02/21 05:01:14;;;;;;;4.13;1.83;;;5.80;69.80;;;8.99;46.01;98004.09;5023717;28;20050;-41
2023/02/21 05:03:43;;;;;;;2.90;1.80;;;5.80;70.20;;;8.95;45.86;97999.22;5030406;28;20520;-41
2023/02/21 05:06:21;;;;;;;2.93;1.93;;;5.70;70.10;;;8.89;46.21;97992.66;5031001;28;20505;-41
2023/02/21 05:08:49;;;;;;;3.27;1.60;;;5.70;70.60;;;8.87;46.37;97984.00;5030615;28;20049;-43
2023/02/21 05:11:18;;;;;;;2.37;1.57;;;5.70;71.50;;;8.89;46.17;97984.69;5030521;28;20045;-41
2023/02/21 05:13:46;;;;;;;3.70;1.43;;;5.70;70.30;;;8.94;46.06;97986.94;5031884;28;20424;-42
2023/02/21 05:16:14;;;;;;;4.73;1.77;;;5.80;70.10;;;8.97;45.96;97978.66;5034306;28;20053;-41
2023/02/21 05:18:44;;;;;;;3.90;1.80;;;5.80;69.70;;;8.98;45.96;97980.34;5032747;28;20448;-42
2023/02/21 05:21:13;;;;;;;3.63;2.00;;;5.80;69.70;;;8.97;45.97;97984.81;5017322;28;20046;-43
2023/02/21 05:23:54;;;;;;;2.93;1.80;;;5.80;69.70;;;8.96;45.86;97988.47;5034391;28;20048;-43
2023/02/21 05:29:24;;;;;;;4.63;1.90;;;5.80;69.80;;;8.91;46.02;97989.88;5028564;28;20417;-41
2023/02/21 05:31:51;;;;;;;4.27;1.93;;;5.70;70.30;;;8.90;46.19;97989.03;5033391;28;20497;-41
2023/02/21 05:34:19;;;;;;;3.30;1.57;;;5.70;70.20;;;8.90;46.36;97990.84;5034403;28;20050;-41
2023/02/21 05:36:46;;;;;;;3.50;2.07;;;5.70;70.30;;;8.86;46.12;97987.66;5034133;28;20065;-42
2023/02/21 05:39:14;;;;;;;5.57;2.43;;;5.70;70.20;;;8.79;46.24;97976.75;5034350;28;20042;-41
2023/02/21 05:41:49;;;;;;;4.93;1.97;;;5.60;70.50;;;8.78;46.39;97985.69;5034352;28;20052;-41
2023/02/21 05:44:17;;;;;;;4.10;1.90;;;5.60;71.20;;;8.78;46.45;97984.84;5027105;28;20049;-41
2023/02/21 05:46:45;;;;;;;3.23;1.83;;;5.60;70.90;;;8.78;46.48;97984.84;5033671;28;20053;-41
2023/02/21 05:49:12;;;;;;;2.83;1.60;;;5.60;70.70;;;8.80;46.33;97970.47;5032768;28;20045;-42
2023/02/21 05:51:42;;;;;;;2.50;1.90;;;5.70;70.60;;;8.83;46.47;97978.13;5034095;28;20045;-41
2023/02/21 05:54:17;;;;;;;2.53;1.93;;;5.70;70.50;;;8.90;46.37;97973.09;5024499;28;20041;-41
2023/02/21 05:56:48;;;;;;;1.80;1.40;;;5.80;70.30;;;8.95;46.26;97973.50;5033688;28;20052;-41
2023/02/21 05:59:18;;;;;;;2.20;1.43;;;5.90;70.30;;;9.01;46.34;97980.06;5033741;28;20041;-41
2023/02/21 06:01:47;;;;;;;2.20;1.80;;;5.90;70.00;;;9.06;46.39;97977.81;5032503;28;20052;-40
2023/02/21 06:04:15;;;;;;;4.03;2.20;;;6.00;69.80;;;9.11;46.21;97975.59;5033470;28;20045;-41
2023/02/21 06:06:44;;;;;;;3.53;1.47;;;6.10;69.40;;;9.14;46.13;97967.31;5033183;28;20057;-42
2023/02/21 06:09:12;;;;;;;2.40;1.40;;;6.10;69.00;;;9.16;46.11;97967.16;5024558;28;20076;-41
2023/02/21 06:11:39;;;;;;;2.70;1.43;;;6.20;68.50;;;9.19;45.87;97964.22;5033467;28;20052;-41
2023/02/21 06:14:15;;;;;;;3.83;1.87;;;6.20;68.10;;;9.25;45.91;97961.00;5032632;28;20064;-41
2023/02/21 06:16:43;;;;;;;5.20;2.00;;;6.20;67.70;;;9.28;45.70;97966.00;5033680;28;20078;-41
2023/02/21 06:19:13;;;;;;;2.57;1.53;;;6.20;67.80;;;9.33;45.76;97973.56;5025449;28;20050;-42
2023/02/21 06:21:40;;;;;;;3.83;3.03;;;6.30;67.60;;;9.37;45.37;97982.91;5033256;28;20041;-40
2023/02/21 06:24:10;;;;;;;3.60;1.73;;;6.30;67.50;;;9.37;46.19;97985.56;5032741;28;20042;-41
2023/02/21 06:26:39;;;;;;;4.97;2.00;;;6.30;67.80;;;9.38;45.47;97992.53;5032398;28;20042;-41
2023/02/21 06:29:07;;;;;;;3.17;1.93;;;6.40;67.90;;;9.39;45.56;97987.09;5033088;28;20044;-41
2023/02/21 06:31:35;;;;;;;8.43;2.40;;;6.30;68.00;;;9.36;45.81;97987.38;5032552;28;20421;-41
2023/02/21 06:34:04;;;;;;;4.00;2.10;;;6.20;68.40;;;9.32;45.85;97988.63;5032168;28;20064;-41
2023/02/21 06:36:31;;;;;;;3.47;1.70;;;6.20;68.90;;;9.31;45.87;98000.25;5031710;28;20045;-40
2023/02/21 06:38:59;;;;;;;3.13;2.40;;;6.20;68.80;;;9.29;45.82;97990.78;5033364;28;20049;-41
2023/02/21 06:41:28;;;;;;;3.80;2.17;;;6.20;69.20;;;9.25;45.79;97999.03;5033016;28;20052;-41
2023/02/21 06:43:57;;;;;;;8.70;2.43;;;6.10;69.40;;;9.20;45.96;97987.16;5032289;28;20041;-40
2023/02/21 06:46:28;;;;;;;5.73;2.30;;;6.10;69.70;;;9.23;46.18;97992.19;5032787;28;20053;-40
2023/02/21 06:48:56;;;;;;;6.37;2.40;;;6.10;70.00;;;9.22;46.16;97990.50;5032173;28;20052;-43
2023/02/21 06:51:28;;;;;;;4.03;2.00;;;6.10;69.80;;;9.22;45.91;97990.50;5030782;28;20056;-42
2023/02/21 06:53:57;;;;;;;3.83;1.80;;;6.10;69.70;;;9.20;46.02;97993.28;5032558;28;20049;-42
2023/02/21 06:56:25;;;;;;;6.00;2.00;;;6.00;69.90;;;9.15;46.40;97992.91;5032785;28;20516;-42
2023/02/21 06:58:53;;;;;;;4.63;2.47;;;6.00;70.10;;;9.14;46.15;97998.34;5032397;28;20497;-41
2023/02/21 07:01:21;;;;;;;7.27;3.20;;;6.00;70.40;;;9.12;46.21;98000.31;5031964;28;20709;-41
2023/02/21 07:03:51;;;;;;;6.87;3.37;;;6.00;70.30;;;9.11;46.50;97994.19;5030349;28;20056;-41
2023/02/21 07:06:18;;;;;;;12.57;5.60;;;5.90;70.60;;;9.12;46.32;97995.00;5032661;28;20052;-43
2023/02/21 07:08:47;;;;;;;3.10;2.77;;;5.90;70.60;;;9.11;46.66;97993.31;5031061;28;20041;-41
2023/02/21 07:11:15;;;;;;;4.07;2.77;;;5.90;71.20;;;9.09;46.66;97993.44;5024398;28;20044;-41
2023/02/21 07:13:50;;;;;;;5.83;2.20;;;5.90;71.30;;;9.11;46.42;97995.97;5031913;28;20038;-41
2023/02/21 07:16:19;;;;;;;8.10;2.83;;;5.90;71.50;;;9.13;46.58;98000.19;5024679;28;20041;-40
2023/02/21 07:18:47;;;;;;;4.63;2.23;;;6.00;71.50;;;9.15;46.77;97992.91;5032061;28;20045;-41
2023/02/21 07:21:16;;;;;;;7.93;3.23;;;6.00;71.20;;;9.18;46.63;97994.41;5023594;28;20048;-43
2023/02/21 07:23:45;;;;;;;4.17;2.40;;;6.00;71.20;;;9.21;46.64;97994.97;5030389;28;20417;-41
2023/02/21 07:26:14;;;;;;;5.57;2.23;;;6.10;71.30;;;9.27;46.81;97994.41;5027853;28;20052;-42
2023/02/21 07:28:42;;;;;;;6.57;1.90;;;6.20;71.10;;;9.31;46.57;98000.25;5032087;28;20049;-41
2023/02/21 07:31:09;;;;;;;7.17;2.23;;;6.20;70.80;;;9.35;46.64;97982.22;5031871;28;20428;-41
2023/02/21 07:33:37;;;;;;;6.30;2.27;;;6.30;70.80;;;9.42;46.65;97991.25;5031493;28;20049;-40
2023/02/21 07:36:05;;;;;;;11.73;3.60;;;6.30;70.40;;;9.46;46.61;97987.34;5032352;28;20462;-40
2023/02/21 07:38:33;;;;;;;5.27;2.60;;;6.40;70.50;;;9.52;46.66;97988.56;5032024;28;20037;-40
2023/02/21 07:41:02;;;;;;;7.23;3.27;;;6.50;70.60;;;9.60;46.66;97994.84;5031813;28;20048;-41
2023/02/21 07:43:30;;;;;;;5.47;2.77;;;6.60;70.30;;;9.68;46.49;97988.78;5031054;28;20052;-41
2023/02/21 07:45:58;;;;;;;3.67;2.20;;;6.70;70.20;;;9.76;46.31;97988.88;5025912;28;20053;-41
2023/02/21 07:48:26;;;;;;;5.20;2.47;;;6.70;70.10;;;9.82;46.63;97992.78;5031104;28;20132;-40
2023/02/21 07:50:54;;;;;;;5.03;3.47;;;6.80;70.20;;;9.90;46.60;97995.53;5023626;28;20045;-41
2023/02/21 07:53:22;;;;;;;4.07;2.90;;;6.90;70.20;;;9.99;46.55;97996.47;5022827;28;20398;-41
2023/02/21 07:55:49;;;;;;;5.63;2.93;;;7.00;70.00;;;10.08;46.62;97995.59;5028292;28;20044;-40
2023/02/21 07:58:17;;;;;;;3.87;2.10;;;7.10;70.00;;;10.15;46.39;97995.81;5022739;28;20045;-42
2023/02/21 08:00:47;;;;;;;3.00;1.80;;;7.20;69.60;;;10.22;46.55;97992.41;5025015;28;20037;-41
2023/02/21 08:03:15;;;;;;;5.57;2.23;;;7.20;69.20;;;10.28;46.00;97990.97;5030255;28;20053;-41
2023/02/21 08:05:44;;;;;;;6.13;1.80;;;7.30;69.30;;;10.36;46.41;97991.06;5031110;28;20417;-45
2023/02/21 08:08:15;;;;;;;6.17;2.63;;;7.30;69.10;;;10.42;46.41;97982.47;5031160;28;20064;-46
2023/02/21 08:10:43;;;;;;;5.17;3.60;;;7.40;68.90;;;10.50;46.32;97992.38;5031344;28;20053;-44
2023/02/21 08:13:10;;;;;;;7.83;3.03;;;7.60;68.80;;;10.57;46.46;97992.59;5031107;28;20049;-43
2023/02/21 08:15:38;;;;;;;5.53;2.67;;;7.70;68.60;;;10.66;46.37;97993.50;5030678;28;20049;-41
2023/02/21 08:18:05;;;;;;;4.43;2.53;;;7.80;68.40;;;10.72;45.95;97998.22;5030587;28;20038;-41
2023/02/21 08:20:33;;;;;;;5.60;2.97;;;7.90;68.60;;;10.77;46.36;97999.41;5030175;28;20508;-42
2023/02/21 08:23:01;;;;;;;5.67;2.63;;;7.90;68.80;;;10.84;46.34;98003.16;5030815;28;20041;-42
2023/02/21 08:25:29;;;;;;;3.17;2.37;;;8.00;68.70;;;10.89;46.23;98008.00;5029581;28;20045;-41
2023/02/21 08:27:57;;;;;;;4.47;2.30;;;8.00;68.20;;;10.90;45.74;98006.19;5031490;28;20045;-42
2023/02/21 08:30:25;;;;;;;3.47;2.20;;;8.00;67.90;;;10.94;45.69;98011.06;5030372;28;20041;-41
2023/02/21 08:32:53;;;;;;;3.37;1.90;;;8.10;67.70;;;10.96;45.72;98010.91;5030648;28;20413;-41
2023/02/21 08:35:21;;;;;;;6.20;2.23;;;8.10;67.10;;;10.98;45.37;98019.59;5027239;28;20042;-43
2023/02/21 08:37:49;;;;;;;4.43;1.90;;;8.20;66.90;;;11.02;45.69;98011.09;5030942;28;20423;-43
2023/02/21 08:40:20;;;;;;;5.00;2.50;;;8.20;66.60;;;11.10;45.68;98005.00;5030759;28;20045;-43
2023/02/21 08:42:51;;;;;;;4.13;2.33;;;8.30;66.50;;;11.18;45.67;98006.91;5030677;28;20053;-41
2023/02/21 08:45:21;;;;;;;5.83;2.17;;;8.30;66.60;;;11.25;45.04;98004.47;5024907;28;20046;-42
2023/02/21 08:47:50;;;;;;;4.37;2.20;;;8.40;66.50;;;11.31;45.23;98001.97;5029297;28;20046;-42
2023/02/21 08:50:20;;;;;;;4.87;2.63;;;8.50;66.40;;;11.38;45.14;97999.50;5029132;28;20068;-41
2023/02/21 08:52:49;;;;;;;5.47;2.00;;;8.50;66.20;;;11.43;45.53;98000.72;5029741;28;20504;-41
2023/02/21 08:55:18;;;;;;;3.70;2.10;;;8.60;66.10;;;11.49;45.36;97999.25;5029746;28;20517;-41
2023/02/21 08:57:51;;;;;;;5.13;2.30;;;8.60;66.00;;;11.57;45.52;98004.66;5030742;28;20111;-41
2023/02/21 09:00:22;;;;;;;5.57;2.25;;;8.70;66.10;;;11.63;45.37;98005.81;5022378;28;20078;-41
2023/02/21 09:02:51;;;;;;;4.97;2.00;;;8.80;66.50;;;11.68;45.09;98008.03;5030740;28;20034;-41
2023/02/21 09:05:26;;;;;;;4.53;2.57;;;8.70;66.50;;;11.71;45.00;98008.56;5030193;28;20045;-41
2023/02/21 09:07:57;;;;;;;3.20;2.43;;;8.80;66.40;;;11.75;45.07;98001.06;5030738;28;20510;-41
2023/02/21 09:10:28;;;;;;;5.33;2.20;;;8.80;66.20;;;11.82;44.70;98008.28;5022323;28;20053;-44
2023/02/21 09:12:56;;;;;;;7.23;3.33;;;8.90;66.10;;;11.87;44.78;97999.78;5030731;28;20108;-42
2023/02/21 09:15:23;;;;;;;4.77;2.40;;;9.00;66.00;;;11.92;44.72;98009.97;5030293;28;20037;-43
2023/02/21 09:17:53;;;;;;;7.00;2.87;;;9.00;65.70;;;11.96;44.89;98000.66;5030707;28;20042;-42
2023/02/21 09:20:25;;;;;;;6.47;2.40;;;9.10;65.60;;;12.00;44.54;98002.84;5022423;28;20045;-41
2023/02/21 09:22:52;;;;;;;5.23;3.30;;;9.10;65.10;;;12.05;44.48;98002.38;5030549;28;20042;-41
2023/02/21 09:25:23;;;;;;;7.73;3.23;;;9.20;65.00;;;12.08;44.46;97998.53;5029078;28;20046;-41
2023/02/21 09:27:52;;;;;;;7.13;3.23;;;9.20;64.70;;;12.08;44.56;97999.38;5030052;28;20037;-41
2023/02/21 09:30:25;;;;;;;6.90;3.07;;;9.20;64.70;;;12.07;44.75;98002.22;5020689;28;20046;-43
2023/02/21 09:32:54;;;;;;;6.13;3.37;;;9.10;64.80;;;12.09;44.28;98006.38;5029532;28;20493;-42
2023/02/21 09:35:22;;;;;;;6.17;3.47;;;9.20;64.90;;;12.10;44.22;98007.22;5020819;28;20037;-42
2023/02/21 09:37:50;;;;;;;6.30;3.13;;;9.20;64.60;;;12.11;44.35;98000.88;5029971;28;20516;-41
2023/02/21 09:40:39;;;;;;;6.47;3.67;;;9.20;65.00;;;12.16;44.32;98003.91;5029988;28;20042;-41
2023/02/21 09:43:24;;;;;;;4.97;3.17;;;9.20;64.40;;;12.24;43.97;98005.78;5028731;28;20045;-42
2023/02/21 09:45:57;;;;;;;7.83;2.70;;;9.30;64.60;;;12.26;44.28;98003.78;5028990;28;20046;-42
2023/02/21 09:48:26;;;;;;;4.07;2.47;;;9.30;64.30;;;12.31;44.36;98001.44;5022488;28;20045;-41
2023/02/21 09:51:02;;;;;;;6.53;3.23;;;9.30;64.40;;;12.30;44.54;97997.94;5028750;28;20281;-41
2023/02/21 09:53:39;;;;;;;8.47;3.53;;;9.40;65.10;;;12.34;44.53;97996.59;5021822;28;20365;-42
2023/02/21 09:56:33;;;;;;;5.43;3.63;;;9.50;65.60;;;12.40;44.87;97995.94;5029940;28;20048;-41
2023/02/21 09:59:02;;;;;;;6.75;3.53;;;9.50;65.60;;;12.50;44.74;97995.78;5030272;28;20045;-42
2023/02/21 10:02:02;;;;;;;6.23;3.50;;;9.60;65.50;;;12.52;44.69;97996.50;5033155;28;20045;-41
2023/02/21 10:05:06;;;;;;;6.50;3.37;;;9.70;65.20;;;12.57;44.77;97993.31;5026059;28;20394;-42
2023/02/21 10:08:36;;;;;;;5.68;3.22;;;9.70;65.30;;;12.65;44.71;97992.47;5026760;28;20041;-41
2023/02/21 10:12:02;;;;;;;4.83;2.83;;;9.80;64.90;;;12.70;44.76;97995.50;4989141;28;20046;-41
2023/02/21 10:15:24;;;;;;;7.97;3.30;;;9.80;64.80;;;12.80;44.85;97990.81;4979080;28;20049;-41
2023/02/21 10:18:44;;;;;;;6.37;3.00;;;9.90;64.90;;;12.89;44.72;97991.63;5025145;28;20416;-42
2023/02/21 10:21:24;;;;;;;3.90;2.97;;;10.10;64.40;;;12.97;44.47;97995.16;5031999;28;20052;-41
2023/02/21 10:23:56;;;;;;;7.50;3.13;;;10.10;64.50;;;13.03;44.33;97985.63;5031512;28;20050;-42
2023/02/21 10:26:27;;;;;;;4.07;3.40;;;10.20;64.70;;;13.07;44.41;97978.94;5020125;28;20041;-41
2023/02/21 10:28:55;;;;;;;5.53;3.90;;;10.20;64.70;;;13.12;44.53;97981.94;5031683;28;20044;-41
2023/02/21 10:31:39;;;;;;;6.07;3.10;;;10.30;64.60;;;13.15;44.17;97978.94;5033179;28;20412;-45
2023/02/21 10:34:25;;;;;;;6.13;3.60;;;10.30;63.80;;;13.24;44.27;97986.94;5031574;28;20052;-41
2023/02/21 10:36:56;;;;;;;7.20;3.20;;;10.30;64.60;;;13.25;44.21;97988.63;5031966;28;20041;-44
2023/02/21 10:39:35;;;;;;;5.73;3.20;;;10.40;65.10;;;13.27;44.45;97991.94;5032130;28;20034;-41
2023/02/21 10:42:03;;;;;;;6.10;3.57;;;10.40;64.80;;;13.24;44.71;97982.44;5033106;28;20034;-42
2023/02/21 10:44:34;;;;;;;10.77;3.87;;;10.40;65.40;;;13.18;44.44;97981.28;5032677;28;20041;-41
2023/02/21 10:47:18;;;;;;;5.30;3.27;;;10.40;64.90;;;13.18;44.26;97983.94;5032793;28;20041;-42
2023/02/21 10:50:07;;;;;;;7.18;3.55;;;10.40;64.60;;;13.24;44.49;97979.78;5016035;28;20038;-42
2023/02/21 10:52:53;;;;;;;7.40;3.70;;;10.40;64.20;;;13.33;44.68;97973.41;5026166;28;20041;-42
2023/02/21 10:55:22;;;;;;;6.33;3.70;;;10.50;65.00;;;13.35;44.30;97973.25;5032528;28;20050;-44
2023/02/21 10:58:21;;;;;;;7.73;3.80;;;10.50;65.10;;;13.41;44.25;97964.53;5016375;28;20408;-44
2023/02/21 11:00:49;;;;;;;4.27;3.17;;;10.60;63.90;;;13.51;44.51;97964.34;5042293;28;20052;-45
2023/02/21 11:03:27;;;;;;;10.10;3.80;;;10.70;64.50;;;13.56;44.34;97967.34;5031496;28;20049;-43
2023/02/21 11:05:56;;;;;;;7.53;3.53;;;10.80;64.40;;;13.56;44.30;97962.00;5031544;28;20420;-42
2023/02/21 11:08:43;;;;;;;7.70;3.83;;;10.80;64.70;;;13.61;44.20;97956.09;5031156;28;20068;-43
2023/02/21 11:11:10;;;;;;;6.87;3.43;;;10.80;64.30;;;13.65;44.29;97957.44;5032220;28;20049;-42
2023/02/21 11:13:38;;;;;;;6.70;3.57;;;10.80;64.60;;;13.68;44.33;97959.78;5031100;28;20045;-44
2023/02/21 11:16:18;;;;;;;8.80;4.97;;;10.90;64.60;;;13.73;44.43;97960.09;5032236;28;20524;-43
2023/02/21 11:18:45;;;;;;;5.97;3.67;;;11.00;64.70;;;13.80;44.35;97958.38;5031326;28;20049;-41
2023/02/21 11:21:18;;;;;;;9.67;5.07;;;11.00;64.60;;;13.89;44.12;97953.84;5032164;28;20053;-41
2023/02/21 11:24:03;;;;;;;10.17;6.10;;;11.10;64.90;;;13.99;44.17;97947.25;5032155;28;20049;-41
2023/02/21 11:26:48;;;;;;;9.57;4.30;;;11.20;63.50;;;14.06;43.96;97943.88;5024722;28;20092;-45
2023/02/21 11:29:25;;;;;;;8.70;4.43;;;11.20;63.30;;;14.09;44.04;97941.66;5022453;28;20489;-43
2023/02/21 11:31:54;;;;;;;8.70;3.90;;;11.30;63.30;;;14.10;43.79;97938.00;5020376;28;20049;-42
2023/02/21 11:34:29;;;;;;;7.33;5.13;;;11.30;63.70;;;14.12;43.84;97925.25;5024562;28;20052;-42
2023/02/21 11:37:03;;;;;;;5.43;3.57;;;11.30;63.40;;;14.22;43.63;97921.53;5025408;28;20397;-41
2023/02/21 11:39:32;;;;;;;;;;;11.40;62.90;;;14.37;43.78;97917.91;5027571;28;20045;-42
2023/02/21 11:42:03;;;;;;;6.33;3.43;;;11.50;61.80;;;14.43;43.36;97916.34;5032076;28;20160;-44
2023/02/21 11:44:39;;;;;;;7.63;3.70;;;11.50;62.80;;;14.44;43.33;97912.63;5024160;28;20045;-43
2023/02/21 11:47:27;;;;;;;5.67;3.23;;;11.60;62.60;;;14.48;43.07;97903.25;5032228;28;20057;-43
2023/02/21 11:50:09;;;;;;;5.00;2.90;;;11.70;60.90;;;14.53;43.00;97900.84;5030335;28;20048;-45
2023/02/21 11:52:48;;;;;;;6.33;3.03;;;11.80;61.00;;;14.59;42.79;97896.66;5024798;28;20554;-42
2023/02/21 11:55:20;;;;;;;3.73;2.50;;;11.90;60.30;;;14.66;42.74;97897.59;5030258;28;20053;-42
2023/02/21 11:58:38;;;;;;;5.55;2.80;;;11.90;60.70;;;14.71;42.78;97895.22;5031570;28;20060;-45
2023/02/21 12:01:23;;;;;;;4.97;2.97;;;12.00;59.30;;;14.82;42.42;97891.25;5027725;28;20386;-42
2023/02/21 12:04:16;;;;;;;4.17;2.40;;;12.00;59.90;;;14.86;42.32;97881.84;5015870;28;20037;-41
2023/02/21 12:07:24;;;;;;;5.87;2.67;;;12.10;58.90;;;14.93;42.56;97880.09;5008115;28;20041;-42
2023/02/21 12:10:37;;;;;;;7.45;2.78;;;12.30;58.10;;;15.05;42.31;97864.38;5025222;28;20060;-45
2023/02/21 12:13:35;;;;;;;4.87;2.80;;;12.30;58.20;;;15.13;42.10;97861.59;5027240;28;20045;-44
2023/02/21 12:16:41;;;;;;;3.77;2.43;;;12.40;58.60;;;15.18;42.07;97860.22;5030878;28;20519;-42
2023/02/21 12:19:52;;;;;;;6.67;2.83;;;12.50;58.50;;;15.25;42.19;97845.88;5028517;28;20068;-44
2023/02/21 12:22:33;;;;;;;5.13;2.50;;;12.60;57.60;;;15.35;41.65;97842.91;5030896;28;20052;-45
2023/02/21 12:25:16;;;;;;;4.30;2.50;;;12.60;58.30;;;15.42;41.14;97841.16;5030903;28;20054;-42
2023/02/21 12:28:12;;;;;;;5.45;2.92;;;12.70;58.20;;;15.50;41.57;97837.53;5025200;28;20509;-44
2023/02/21 12:31:11;;;;;;;6.88;3.28;;;12.80;57.50;;;15.59;41.35;97828.38;5023631;28;20041;-41
2023/02/21 12:34:04;;;;;;;5.53;3.05;;;12.90;57.70;;;15.65;41.47;97821.41;5024064;28;20215;-45
2023/02/21 12:37:13;;;;;;;5.18;2.90;;;13.00;57.10;;;15.73;41.57;97815.97;5029760;28;20045;-46
2023/02/21 12:40:14;;;;;;;7.05;3.45;;;13.10;56.60;;;15.86;41.51;97810.72;5024198;28;20048;-46
2023/02/21 12:43:18;;;;;;;7.65;3.90;;;13.20;57.70;;;15.95;41.12;97806.06;5024549;28;20041;-43
2023/02/21 12:46:29;;;;;;;5.18;3.10;;;13.30;55.80;;;16.07;40.76;97801.84;5029864;28;20038;-43
2023/02/21 12:49:18;;;;;;;4.65;2.95;;;13.40;54.30;;;16.18;40.56;97799.66;5025186;28;20056;-41
2023/02/21 12:52:04;;;;;;;3.72;3.10;;;13.50;55.40;;;16.27;40.33;97795.81;5024983;28;20045;-42
2023/02/21 12:55:06;;;;;;;8.48;3.47;;;13.60;55.70;;;16.36;39.92;97796.50;5029477;28;20505;-41
2023/02/21 12:58:08;;;;;;;7.03;3.38;;;13.70;55.30;;;16.47;40.09;97785.22;5021646;28;20060;-41
2023/02/21 13:00:59;;;;;;;5.53;3.13;;;13.70;53.30;;;16.53;39.93;97782.56;5022265;28;20044;-45
2023/02/21 13:03:54;;;;;;;7.47;2.85;;;13.80;53.70;;;16.60;39.43;97769.19;5030079;28;20052;-43
2023/02/21 13:06:32;;;;;;;3.92;2.95;;;13.90;53.40;;;16.67;39.42;97770.09;5029796;28;20041;-42
2023/02/21 13:09:05;;;;;;;5.80;2.80;;;14.00;53.50;;;16.74;38.90;97762.03;5028555;28;20038;-42
2023/02/21 13:11:59;;;;;;;6.50;2.97;;;14.00;53.60;;;16.81;39.11;97760.25;5030478;28;20532;-42
2023/02/21 13:14:44;;;;;;;9.98;5.40;;;14.10;52.30;;;16.88;38.79;97760.28;5029447;28;20049;-42
2023/02/21 13:17:14;;;;;;;13.90;8.07;;;14.20;53.00;;;16.94;38.85;97754.13;5029243;28;20490;-42
2023/02/21 13:19:52;;;;;;;11.38;5.20;;;14.30;53.60;;;17.03;38.58;97754.78;5029672;28;20049;-42
2023/02/21 13:22:41;;;;;;;6.78;4.03;;;14.40;52.80;;;17.09;38.15;97749.44;5030686;28;20045;-43
2023/02/21 13:25:36;;;;;;;5.07;3.75;;;14.40;52.40;;;17.19;38.43;97745.53;5023246;28;20061;-43